createdAt,value
2023-05-12T00:02:42.620Z,98775.78
2023-05-12T00:05:29.991Z,98764.59
2023-05-12T00:08:16.821Z,98762.00
2023-05-12T00:11:04.155Z,98749.09
2023-05-12T00:13:50.768Z,98735.34
2023-05-12T00:16:37.324Z,98750.81
2023-05-12T00:19:23.600Z,98754.25
2023-05-12T00:22:11.494Z,98729.16
2023-05-12T00:24:58.051Z,98751.38
2023-05-12T00:27:44.347Z,98746.25
2023-05-12T00:30:30.756Z,98723.91
2023-05-12T00:33:17.203Z,98728.19
2023-05-12T00:36:04.172Z,98754.03
2023-05-12T00:38:50.700Z,98749.78
2023-05-12T00:41:37.000Z,98745.44
2023-05-12T00:44:23.349Z,98728.28
2023-05-12T00:47:09.801Z,98723.13
2023-05-12T00:49:56.745Z,98760.03
2023-05-12T00:52:44.048Z,98762.72
2023-05-12T00:55:31.425Z,98755.84
2023-05-12T00:58:18.005Z,98736.94
2023-05-12T01:01:04.388Z,98725.66
2023-05-12T01:03:51.477Z,98756.66
2023-05-12T01:07:10.004Z,98759.25
2023-05-12T01:09:58.055Z,98743.78
2023-05-12T01:12:45.907Z,98731.81
2023-05-12T01:15:33.228Z,98761.09
2023-05-12T01:18:21.545Z,98706.09
2023-05-12T01:21:08.404Z,98761.03
2023-05-12T01:23:59.326Z,98762.78
2023-05-12T01:26:47.937Z,98754.97
2023-05-12T01:29:35.607Z,98728.28
2023-05-12T01:32:22.337Z,98754.00
2023-05-12T01:35:09.193Z,98755.59
2023-05-12T01:37:57.695Z,98754.81
2023-05-12T01:40:43.948Z,98748.78
2023-05-12T01:43:30.675Z,98745.34
2023-05-12T01:46:17.505Z,98738.47
2023-05-12T01:49:03.930Z,98761.59
2023-05-12T01:51:50.521Z,98756.41
2023-05-12T01:54:42.758Z,98758.31
2023-05-12T01:57:30.675Z,98764.34
2023-05-12T02:00:19.737Z,98726.59
2023-05-12T02:03:08.031Z,98727.47
2023-05-12T02:05:54.691Z,98752.38
2023-05-12T02:08:41.644Z,98752.41
2023-05-12T02:11:29.397Z,98746.38
2023-05-12T02:14:16.099Z,98735.31
2023-05-12T02:17:03.185Z,98756.81
2023-05-12T02:19:51.209Z,98728.47
2023-05-12T02:22:37.815Z,98754.25
2023-05-12T02:25:24.207Z,98745.59
2023-05-12T02:28:11.784Z,98745.63
2023-05-12T02:30:59.377Z,98752.53
2023-05-12T02:33:46.758Z,98737.91
2023-05-12T02:36:34.320Z,98755.16
2023-05-12T02:39:20.367Z,98720.78
2023-05-12T02:42:07.331Z,98718.16
2023-05-12T02:44:53.677Z,98754.34
2023-05-12T02:47:40.113Z,98725.09
2023-05-12T02:50:26.440Z,98714.75
2023-05-12T02:53:12.869Z,98732.78
2023-05-12T02:55:59.047Z,98722.50
2023-05-12T02:58:45.962Z,98755.19
2023-05-12T03:01:32.755Z,98744.81
2023-05-12T03:04:19.316Z,98728.44
2023-05-12T03:07:06.040Z,98747.41
2023-05-12T03:09:53.435Z,98748.28
2023-05-12T03:12:41.931Z,98690.69
2023-05-12T03:15:28.161Z,98709.63
2023-05-12T03:18:14.772Z,98741.38
2023-05-12T03:21:01.352Z,98748.34
2023-05-12T03:23:47.675Z,98736.28
2023-05-12T03:26:34.001Z,98716.56
2023-05-12T03:29:20.233Z,98755.19
2023-05-12T03:32:07.062Z,98750.84
2023-05-12T03:34:54.047Z,98747.44
2023-05-12T03:37:40.501Z,98751.72
2023-05-12T03:40:27.829Z,98756.84
2023-05-12T03:43:14.163Z,98741.31
2023-05-12T03:46:00.856Z,98720.69
2023-05-12T03:48:47.569Z,98740.53
2023-05-12T03:51:35.463Z,98754.16
2023-05-12T03:54:22.176Z,98749.84
2023-05-12T03:57:08.712Z,98745.47
2023-05-12T03:59:55.507Z,98737.69
2023-05-12T04:02:42.027Z,98749.78
2023-05-12T04:05:28.650Z,98675.06
2023-05-12T04:08:15.088Z,98693.97
2023-05-12T04:11:02.281Z,98748.16
2023-05-12T04:13:48.462Z,98751.59
2023-05-12T04:16:35.672Z,98734.47
2023-05-12T04:19:22.157Z,98724.16
2023-05-12T04:22:08.662Z,98689.78
2023-05-12T04:24:55.141Z,98735.31
2023-05-12T04:27:41.993Z,98739.59
2023-05-12T04:30:28.310Z,98744.75
2023-05-12T04:33:14.933Z,98752.50
2023-05-12T04:36:01.730Z,98749.94
2023-05-12T04:38:48.499Z,98751.56
2023-05-12T04:41:36.297Z,98718.00
2023-05-12T04:44:23.124Z,98757.47
2023-05-12T04:47:11.343Z,98760.91
2023-05-12T04:49:57.520Z,98729.94
2023-05-12T04:52:43.978Z,98769.44
2023-05-12T04:55:31.061Z,98772.00
2023-05-12T04:58:17.632Z,98771.19
2023-05-12T05:01:04.326Z,98748.00
2023-05-12T05:03:52.497Z,98776.34
2023-05-12T05:06:39.629Z,98771.91
2023-05-12T05:09:27.036Z,98777.88
2023-05-12T05:12:13.630Z,98767.53
2023-05-12T05:15:00.302Z,98776.09
2023-05-12T05:17:49.494Z,98778.66
2023-05-12T05:20:40.669Z,98773.53
2023-05-12T05:23:29.614Z,98764.91
2023-05-12T05:26:16.206Z,98788.13
2023-05-12T05:29:04.594Z,98774.38
2023-05-12T05:31:52.658Z,98787.19
2023-05-12T05:34:39.371Z,98784.75
2023-05-12T05:37:26.220Z,98744.31
2023-05-12T05:40:15.264Z,98782.94
2023-05-12T05:43:01.809Z,98754.59
2023-05-12T05:45:49.674Z,98785.53
2023-05-12T05:48:39.012Z,98786.47
2023-05-12T05:51:28.747Z,98769.25
2023-05-12T05:54:15.195Z,98775.19
2023-05-12T05:57:03.112Z,98796.78
2023-05-12T05:59:50.434Z,98761.38
2023-05-12T06:02:37.037Z,98794.88
2023-05-12T06:05:24.712Z,98800.06
2023-05-12T06:08:13.310Z,98778.50
2023-05-12T06:10:59.695Z,98782.75
2023-05-12T06:13:46.231Z,98798.16
2023-05-12T06:16:32.731Z,98758.63
2023-05-12T06:19:19.180Z,98806.69
2023-05-12T06:22:05.616Z,98774.00
2023-05-12T06:24:52.447Z,98802.25
2023-05-12T06:27:38.639Z,98810.88
2023-05-12T06:30:25.692Z,98803.16
2023-05-12T06:33:14.418Z,98796.41
2023-05-12T06:36:00.807Z,98791.19
2023-05-12T06:38:47.181Z,98822.03
2023-05-12T06:41:33.622Z,98737.69
2023-05-12T06:44:20.503Z,98789.78
2023-05-12T06:47:11.525Z,98819.78
2023-05-12T06:49:58.345Z,98795.56
2023-05-12T06:52:44.747Z,98790.38
2023-05-12T06:55:31.140Z,98788.69
2023-05-12T06:58:18.982Z,98797.38
2023-05-12T07:01:05.912Z,98792.97
2023-05-12T07:03:52.553Z,98826.66
2023-05-12T07:06:39.037Z,98812.78
2023-05-12T07:09:25.232Z,98799.66
2023-05-12T07:12:11.972Z,98804.72
2023-05-12T07:14:58.779Z,98789.25
2023-05-12T07:17:45.412Z,98795.06
2023-05-12T07:20:32.001Z,98800.09
2023-05-12T07:23:18.323Z,98798.47
2023-05-12T07:26:06.789Z,98799.06
2023-05-12T07:28:53.183Z,98778.31
2023-05-12T07:31:39.526Z,98788.66
2023-05-12T07:34:26.364Z,98744.03
2023-05-12T07:37:12.945Z,98815.13
2023-05-12T07:39:59.650Z,98820.25
2023-05-12T07:42:45.809Z,98811.56
2023-05-12T07:45:32.277Z,98786.59
2023-05-12T07:48:18.739Z,98798.69
2023-05-12T07:51:06.837Z,98799.44
2023-05-12T07:53:55.147Z,98802.56
2023-05-12T07:56:41.345Z,98798.66
2023-05-12T07:59:27.754Z,98820.56
2023-05-12T08:02:14.317Z,98780.69
2023-05-12T08:05:01.008Z,98797.56
2023-05-12T08:07:47.539Z,98825.00
2023-05-12T08:10:33.840Z,98800.34
2023-05-12T08:13:20.134Z,98775.06
2023-05-12T08:16:06.679Z,98787.53
2023-05-12T08:18:53.238Z,98769.88
2023-05-12T08:21:40.207Z,98779.69
2023-05-12T08:24:27.241Z,98817.31
2023-05-12T08:27:13.635Z,98818.78
2023-05-12T08:29:59.965Z,98796.34
2023-05-12T08:32:46.732Z,98814.50
2023-05-12T08:35:32.988Z,98767.63
2023-05-12T08:38:19.672Z,98794.66
2023-05-12T08:41:47.485Z,98812.53
2023-05-12T08:44:34.313Z,98783.47
2023-05-12T08:47:22.975Z,98798.13
2023-05-12T08:50:10.389Z,98797.94
2023-05-12T08:52:57.213Z,98805.78
2023-05-12T08:55:53.336Z,98823.69
2023-05-12T08:58:48.796Z,98819.44
2023-05-12T09:01:36.921Z,98819.16
2023-05-12T09:04:23.663Z,98814.63
2023-05-12T09:07:11.018Z,98812.91
2023-05-12T09:09:58.758Z,98818.06
2023-05-12T09:12:47.184Z,98821.97
2023-05-12T09:15:42.759Z,98784.47
2023-05-12T09:18:52.020Z,98824.22
2023-05-12T09:21:38.432Z,98822.81
2023-05-12T09:24:38.630Z,98819.59
2023-05-12T09:27:28.820Z,98774.13
2023-05-12T09:30:16.211Z,98828.38
2023-05-12T09:33:09.746Z,98823.94
2023-05-12T09:35:56.573Z,98825.06
2023-05-12T09:38:43.833Z,98819.34
2023-05-12T09:41:41.130Z,98817.16
2023-05-12T09:44:29.313Z,98824.59
2023-05-12T09:47:16.940Z,98820.41
2023-05-12T09:50:04.961Z,98797.91
2023-05-12T09:52:52.067Z,98809.47
2023-05-12T09:55:38.379Z,98806.47
2023-05-12T09:58:26.977Z,98794.28
2023-05-12T10:01:23.350Z,98803.03
2023-05-12T10:04:11.636Z,98819.59
2023-05-12T10:06:59.053Z,98820.31
2023-05-12T10:09:48.400Z,98813.56
2023-05-12T10:12:36.009Z,98802.88
2023-05-12T10:15:24.915Z,98811.09
2023-05-12T10:18:12.850Z,98804.31
2023-05-12T10:21:00.570Z,98818.03
2023-05-12T10:23:48.629Z,98788.31
2023-05-12T10:26:37.591Z,98811.47
2023-05-12T10:29:32.790Z,98816.91
2023-05-12T10:32:19.133Z,98801.47
2023-05-12T10:35:10.057Z,98802.97
2023-05-12T10:37:56.290Z,98822.59
2023-05-12T10:40:59.885Z,98819.72
2023-05-12T10:43:49.715Z,98819.81
2023-05-12T10:46:37.082Z,98820.31
2023-05-12T10:49:33.096Z,98813.34
2023-05-12T10:52:20.292Z,98791.97
2023-05-12T10:55:13.171Z,98804.38
2023-05-12T10:58:09.798Z,98782.75
2023-05-12T11:01:05.912Z,98820.31
2023-05-12T11:03:53.752Z,98776.38
2023-05-12T11:06:41.327Z,98794.31
2023-05-12T11:09:27.752Z,98795.72
2023-05-12T11:12:14.878Z,98799.19
2023-05-12T11:15:02.205Z,98809.50
2023-05-12T11:17:48.900Z,98814.50
2023-05-12T11:20:35.179Z,98798.03
2023-05-12T11:23:32.247Z,98821.97
2023-05-12T11:26:19.058Z,98743.13
2023-05-12T11:29:05.558Z,98809.19
2023-05-12T11:31:52.700Z,98827.59
2023-05-12T11:34:39.101Z,98817.78
2023-05-12T11:37:25.475Z,98815.22
2023-05-12T11:40:14.268Z,98817.56
2023-05-12T11:43:10.419Z,98791.19
2023-05-12T11:45:56.834Z,98839.91
2023-05-12T11:48:57.906Z,98832.16
2023-05-12T11:51:44.293Z,98832.38
2023-05-12T11:54:31.118Z,98817.31
2023-05-12T11:57:28.839Z,98835.81
2023-05-12T12:00:15.618Z,98820.81
2023-05-12T12:03:10.408Z,98803.59
2023-05-12T12:06:01.722Z,98824.75
2023-05-12T12:08:56.012Z,98847.50
2023-05-12T12:11:42.252Z,98822.44
2023-05-12T12:14:28.629Z,98791.81
2023-05-12T12:17:14.863Z,98831.59
2023-05-12T12:20:01.533Z,98803.56
2023-05-12T12:22:48.133Z,98843.84
2023-05-12T12:25:34.741Z,98821.00
2023-05-12T12:28:21.057Z,98829.44
2023-05-12T12:31:07.831Z,98819.94
2023-05-12T12:33:54.327Z,98844.16
2023-05-12T12:36:41.109Z,98817.56
2023-05-12T12:39:27.715Z,98860.13
2023-05-12T12:42:15.523Z,98850.84
2023-05-12T12:45:05.998Z,98808.72
2023-05-12T12:47:54.867Z,98850.59
2023-05-12T12:50:41.150Z,98846.22
2023-05-12T12:53:27.508Z,98824.59
2023-05-12T12:56:13.803Z,98854.84
2023-05-12T12:59:00.522Z,98864.09
2023-05-12T13:01:47.298Z,98865.06
2023-05-12T13:04:33.510Z,98859.94
2023-05-12T13:07:19.675Z,98857.59
2023-05-12T13:10:06.732Z,98851.06
2023-05-12T13:12:53.117Z,98854.06
2023-05-12T13:15:41.406Z,98858.81
2023-05-12T13:18:27.998Z,98859.97
2023-05-12T13:21:14.679Z,98812.75
2023-05-12T13:24:00.872Z,98856.97
2023-05-12T13:26:47.589Z,98843.03
2023-05-12T13:29:34.162Z,98866.25
2023-05-12T13:32:20.914Z,98823.00
2023-05-12T13:35:08.717Z,98835.78
2023-05-12T13:37:56.607Z,98861.44
2023-05-12T13:40:42.819Z,98867.13
2023-05-12T13:43:29.337Z,98825.09
2023-05-12T13:46:15.802Z,98863.06
2023-05-12T13:49:02.595Z,98868.50
2023-05-12T13:51:48.958Z,98871.44
2023-05-12T13:54:35.257Z,98859.84
2023-05-12T13:57:21.580Z,98866.56
2023-05-12T14:00:08.994Z,98799.78
2023-05-12T14:03:03.974Z,98839.78
2023-05-12T14:05:50.675Z,98799.81
2023-05-12T14:08:36.869Z,98812.09
2023-05-12T14:11:23.711Z,98859.56
2023-05-12T14:14:10.490Z,98828.44
2023-05-12T14:16:56.762Z,98853.59
2023-05-12T14:19:43.149Z,98859.84
2023-05-12T14:22:29.855Z,98853.59
2023-05-12T14:25:16.249Z,98856.97
2023-05-12T14:28:03.586Z,98861.06
2023-05-12T14:30:50.694Z,98869.63
2023-05-12T14:33:37.321Z,98864.13
2023-05-12T14:36:23.571Z,98860.78
2023-05-12T14:39:10.173Z,98838.13
2023-05-12T14:41:56.458Z,98855.50
2023-05-12T14:44:42.822Z,98851.50
2023-05-12T14:47:29.156Z,98853.84
2023-05-12T14:50:15.831Z,98865.78
2023-05-12T14:53:02.076Z,98831.00
2023-05-12T14:55:49.543Z,98857.69
2023-05-12T14:58:35.970Z,98866.91
2023-05-12T15:01:22.249Z,98871.34
2023-05-12T15:04:08.918Z,98852.59
2023-05-12T15:06:55.479Z,98845.81
2023-05-12T15:09:42.010Z,98850.91
2023-05-12T15:12:28.681Z,98868.09
2023-05-12T15:15:14.919Z,98856.97
2023-05-12T15:18:01.483Z,98874.69
2023-05-12T15:20:47.991Z,98850.50
2023-05-12T15:23:34.380Z,98850.63
2023-05-12T15:26:32.669Z,98825.38
2023-05-12T15:29:19.873Z,98881.72
2023-05-12T15:32:07.403Z,98851.72
2023-05-12T15:34:55.957Z,98880.72
2023-05-12T15:37:42.847Z,98881.47
2023-05-12T15:40:30.802Z,98882.03
2023-05-12T15:43:18.022Z,98878.00
2023-05-12T15:46:05.350Z,98872.94
2023-05-12T15:48:51.957Z,98832.94
2023-05-12T15:51:38.515Z,98847.19
2023-05-12T15:54:26.442Z,98864.63
2023-05-12T15:57:13.625Z,98889.44
2023-05-12T15:59:59.879Z,98879.91
2023-05-12T16:02:46.627Z,98856.66
2023-05-12T16:05:37.595Z,98875.38
2023-05-12T16:08:24.141Z,98883.94
2023-05-12T16:11:10.555Z,98887.38
2023-05-12T16:13:59.767Z,98887.53
2023-05-12T16:16:49.480Z,98889.66
2023-05-12T16:19:36.352Z,98843.13
2023-05-12T16:22:23.000Z,98852.25
2023-05-12T16:25:09.519Z,98855.88
2023-05-12T16:27:55.915Z,98890.84
2023-05-12T16:30:42.637Z,98862.41
2023-05-12T16:33:29.204Z,98890.31
2023-05-12T16:36:17.663Z,98877.16
2023-05-12T16:39:04.055Z,98854.72
2023-05-12T16:41:50.693Z,98845.41
2023-05-12T16:44:36.834Z,98878.66
2023-05-12T16:47:23.072Z,98866.72
2023-05-12T16:50:09.973Z,98861.44
2023-05-12T16:52:56.529Z,98867.44
2023-05-12T16:55:42.863Z,98875.16
2023-05-12T16:58:33.043Z,98876.19
2023-05-12T17:01:19.849Z,98886.28
2023-05-12T17:04:07.912Z,98889.44
2023-05-12T17:06:54.630Z,98865.56
2023-05-12T17:09:41.228Z,98842.22
2023-05-12T17:12:27.703Z,98897.78
2023-05-12T17:15:14.566Z,98861.31
2023-05-12T17:18:01.059Z,98887.53
2023-05-12T17:20:47.292Z,98895.59
2023-05-12T17:23:33.878Z,98883.88
2023-05-12T17:26:20.891Z,98869.34
2023-05-12T17:29:07.086Z,98861.16
2023-05-12T17:31:53.721Z,98866.56
2023-05-12T17:34:40.466Z,98914.84
2023-05-12T17:37:26.816Z,98913.13
2023-05-12T17:40:19.841Z,98900.44
2023-05-12T17:43:06.672Z,98915.97
2023-05-12T17:45:53.174Z,98923.94
2023-05-12T17:48:39.655Z,98925.63
2023-05-12T17:51:26.726Z,98929.25
2023-05-12T17:54:13.395Z,98879.66
2023-05-12T17:57:00.085Z,98934.56
2023-05-12T17:59:46.674Z,98901.50
2023-05-12T18:02:33.212Z,98928.31
2023-05-12T18:05:19.865Z,98884.63
2023-05-12T18:08:07.866Z,98918.41
2023-05-12T18:10:54.166Z,98945.16
2023-05-12T18:13:40.547Z,98940.31
2023-05-12T18:16:29.460Z,98943.78
2023-05-12T18:19:16.087Z,98945.56
2023-05-12T18:22:02.647Z,98918.16
2023-05-12T18:24:50.534Z,98913.34
2023-05-12T18:27:36.959Z,98931.22
2023-05-12T18:30:23.263Z,98931.53
2023-05-12T18:33:09.928Z,98945.28
2023-05-12T18:35:56.427Z,98942.81
2023-05-12T18:38:43.431Z,98956.56
2023-05-12T18:41:29.827Z,98907.72
2023-05-12T18:44:17.260Z,98948.03
2023-05-12T18:47:03.804Z,98899.94
2023-05-12T18:49:50.000Z,98961.06
2023-05-12T18:52:36.866Z,98959.41
2023-05-12T18:55:23.479Z,98931.09
2023-05-12T18:58:09.956Z,98956.84
2023-05-12T19:00:56.339Z,98972.56
2023-05-12T19:03:42.728Z,98961.44
2023-05-12T19:06:29.940Z,98953.00
2023-05-12T19:09:16.258Z,98981.47
2023-05-12T19:12:03.573Z,98956.47
2023-05-12T19:14:50.083Z,98960.94
2023-05-12T19:17:36.592Z,98993.72
2023-05-12T19:20:23.524Z,98992.94
2023-05-12T19:23:09.637Z,98990.38
2023-05-12T19:25:56.156Z,98979.22
2023-05-12T19:28:42.339Z,98998.91
2023-05-12T19:31:28.783Z,98993.78
2023-05-12T19:34:16.350Z,99001.59
2023-05-12T19:37:03.201Z,98990.47
2023-05-12T19:39:50.095Z,98967.19
2023-05-12T19:42:37.970Z,98993.09
2023-05-12T19:45:24.553Z,99008.53
2023-05-12T19:48:11.188Z,99024.06
2023-05-12T19:50:57.870Z,99021.34
2023-05-12T19:53:44.246Z,98998.09
2023-05-12T19:56:30.540Z,99015.34
2023-05-12T19:59:18.532Z,98959.50
2023-05-12T20:02:05.846Z,99030.88
2023-05-12T20:04:52.413Z,99020.56
2023-05-12T20:07:39.108Z,99005.13
2023-05-12T20:10:25.391Z,98992.13
2023-05-12T20:13:11.744Z,99015.38
2023-05-12T20:15:58.073Z,99012.03
2023-05-12T20:18:44.516Z,99031.03
2023-05-12T20:21:31.468Z,99030.94
2023-05-12T20:24:17.898Z,99022.34
2023-05-12T20:27:04.686Z,99023.19
2023-05-12T20:29:51.706Z,99040.44
2023-05-12T20:32:38.357Z,99031.00
2023-05-12T20:35:24.755Z,99051.75
2023-05-12T20:38:11.594Z,99043.31
2023-05-12T20:41:06.576Z,99029.59
2023-05-12T20:43:52.992Z,99008.19
2023-05-12T20:46:39.733Z,99055.63
2023-05-12T20:49:26.075Z,99043.53
2023-05-12T20:52:12.471Z,98990.25
2023-05-12T20:54:59.833Z,99065.06
2023-05-12T20:57:46.098Z,99019.44
2023-05-12T21:00:32.652Z,99058.94
2023-05-12T21:03:19.064Z,99058.91
2023-05-12T21:06:05.894Z,99073.56
2023-05-12T21:08:52.332Z,99016.69
2023-05-12T21:11:38.805Z,99044.16
2023-05-12T21:14:25.408Z,99041.63
2023-05-12T21:17:12.873Z,99037.31
2023-05-12T21:19:59.288Z,99060.63
2023-05-12T21:22:45.805Z,99052.06
2023-05-12T21:25:32.269Z,99021.16
2023-05-12T21:28:18.466Z,99077.13
2023-05-12T21:31:04.673Z,99054.75
2023-05-12T21:33:50.763Z,99026.41
2023-05-12T21:36:37.340Z,99047.94
2023-05-12T21:39:23.779Z,99060.06
2023-05-12T21:42:10.358Z,99046.34
2023-05-12T21:44:56.634Z,99067.00
2023-05-12T21:47:42.817Z,99075.59
2023-05-12T21:50:29.053Z,99071.34
2023-05-12T21:53:15.522Z,99090.28
2023-05-12T21:56:02.017Z,99052.38
2023-05-12T21:58:48.947Z,99049.84
2023-05-12T22:01:35.127Z,99066.22
2023-05-12T22:04:21.521Z,99068.84
2023-05-12T22:07:08.595Z,99079.13
2023-05-12T22:14:27.324Z,99070.41
2023-05-12T22:17:14.075Z,99079.91
2023-05-12T22:20:00.490Z,99041.22
2023-05-12T22:22:47.140Z,99059.34
2023-05-12T22:25:33.191Z,99069.69
2023-05-12T22:28:20.121Z,99089.47
2023-05-12T22:31:06.472Z,99078.31
2023-05-12T22:33:52.681Z,99091.22
2023-05-12T22:36:38.935Z,99073.13
2023-05-12T22:39:25.384Z,99060.16
2023-05-12T22:42:12.041Z,99094.66
2023-05-12T22:44:58.522Z,99096.41
2023-05-12T22:47:44.843Z,99063.59
2023-05-12T22:50:31.124Z,99080.81
2023-05-12T22:53:17.440Z,99092.06
2023-05-12T22:56:04.510Z,99078.31
2023-05-12T22:58:50.789Z,99064.53
2023-05-12T23:01:37.083Z,99058.50
2023-05-12T23:04:23.681Z,99058.50
2023-05-12T23:07:10.219Z,99095.59
2023-05-12T23:09:56.467Z,99055.06
2023-05-12T23:12:42.921Z,99024.94
2023-05-12T23:15:29.098Z,99065.41
2023-05-12T23:18:15.552Z,99037.94
2023-05-12T23:21:02.061Z,99031.91
2023-05-12T23:23:48.277Z,99069.88
2023-05-12T23:26:34.615Z,99059.63
2023-05-12T23:29:20.976Z,99069.97
2023-05-12T23:32:07.746Z,99071.72
2023-05-12T23:34:54.108Z,99038.94
2023-05-12T23:37:40.294Z,99044.16
2023-05-12T23:40:26.384Z,99071.72
2023-05-12T23:43:12.917Z,99061.38
2023-05-12T23:45:59.281Z,99067.44
2023-05-12T23:48:45.483Z,99051.06
2023-05-12T23:51:32.789Z,99056.19
2023-05-12T23:54:19.309Z,99045.84
2023-05-12T23:57:05.589Z,99026.00
2023-05-12T23:59:52.489Z,99057.06
